createdAt,value
2023-05-20T00:02:02.692Z,9.58
2023-05-20T00:04:32.757Z,9.66
2023-05-20T00:07:01.488Z,9.66
2023-05-20T00:09:30.755Z,9.51
2023-05-20T00:11:59.724Z,9.44
2023-05-20T00:14:28.745Z,9.57
2023-05-20T00:16:56.772Z,9.49
2023-05-20T00:19:42.318Z,9.49
2023-05-20T00:22:48.009Z,9.55
2023-05-20T00:25:17.072Z,9.51
2023-05-20T00:27:51.214Z,9.49
2023-05-20T00:30:19.416Z,9.50
2023-05-20T00:32:53.732Z,9.47
2023-05-20T00:35:23.352Z,9.44
2023-05-20T00:37:51.441Z,9.38
2023-05-20T00:40:20.940Z,9.25
2023-05-20T00:42:49.072Z,9.23
2023-05-20T00:45:17.282Z,9.11
2023-05-20T00:47:45.828Z,9.21
2023-05-20T00:50:24.751Z,9.27
2023-05-20T00:52:55.488Z,9.12
2023-05-20T00:55:23.792Z,9.16
2023-05-20T00:57:53.263Z,9.07
2023-05-20T01:00:21.345Z,9.11
2023-05-20T01:02:49.750Z,9.19
2023-05-20T01:05:18.030Z,9.18
2023-05-20T01:07:47.687Z,9.23
2023-05-20T01:10:15.639Z,9.06
2023-05-20T01:12:47.486Z,9.11
2023-05-20T01:15:17.214Z,9.04
2023-05-20T01:17:47.296Z,9.13
2023-05-20T01:20:16.643Z,9.03
2023-05-20T01:22:55.507Z,8.99
2023-05-20T01:25:25.060Z,9.07
2023-05-20T01:27:54.321Z,8.94
2023-05-20T01:30:23.185Z,8.92
2023-05-20T01:32:56.193Z,8.96
2023-05-20T01:35:24.464Z,9.06
2023-05-20T01:37:54.674Z,9.02
2023-05-20T01:40:23.661Z,9.13
2023-05-20T01:42:53.634Z,9.18
2023-05-20T01:45:22.530Z,8.99
2023-05-20T01:47:51.211Z,9.06
2023-05-20T01:50:19.295Z,8.76
2023-05-20T01:52:47.229Z,8.89
2023-05-20T01:55:16.799Z,8.94
2023-05-20T01:57:45.047Z,9.08
2023-05-20T02:00:13.833Z,9.06
2023-05-20T02:02:41.834Z,9.10
2023-05-20T02:05:10.990Z,9.06
2023-05-20T02:07:39.093Z,8.89
2023-05-20T02:10:08.839Z,8.86
2023-05-20T02:12:38.827Z,8.98
2023-05-20T02:15:08.170Z,8.86
2023-05-20T02:17:36.618Z,8.91
2023-05-20T02:20:06.652Z,8.81
2023-05-20T02:22:37.195Z,8.77
2023-05-20T02:25:06.044Z,8.74
2023-05-20T02:27:34.062Z,8.73
2023-05-20T02:30:04.078Z,8.52
2023-05-20T02:32:33.700Z,8.56
2023-05-20T02:35:01.875Z,8.61
2023-05-20T02:37:30.046Z,8.68
2023-05-20T02:39:58.271Z,8.67
2023-05-20T02:42:26.702Z,8.72
2023-05-20T02:44:58.412Z,8.74
2023-05-20T02:47:30.520Z,8.71
2023-05-20T02:49:59.158Z,8.90
2023-05-20T02:52:27.486Z,8.93
2023-05-20T02:54:56.494Z,9.05
2023-05-20T02:57:24.634Z,9.02
2023-05-20T02:59:52.952Z,9.06
2023-05-20T03:02:21.230Z,9.04
2023-05-20T03:04:50.800Z,8.98
2023-05-20T03:07:19.878Z,8.97
2023-05-20T03:09:48.084Z,9.05
2023-05-20T03:12:16.494Z,9.18
2023-05-20T03:14:44.610Z,9.06
2023-05-20T03:17:12.587Z,9.25
2023-05-20T03:19:40.686Z,9.26
2023-05-20T03:22:11.681Z,9.32
2023-05-20T03:24:40.608Z,9.29
2023-05-20T03:27:09.611Z,9.15
2023-05-20T03:29:37.941Z,8.96
2023-05-20T03:32:08.769Z,8.85
2023-05-20T03:34:39.522Z,8.87
2023-05-20T03:37:08.054Z,8.87
2023-05-20T03:39:40.302Z,8.99
2023-05-20T03:42:08.444Z,8.95
2023-05-20T03:44:39.296Z,8.91
2023-05-20T03:47:07.489Z,8.91
2023-05-20T03:49:41.567Z,8.84
2023-05-20T03:52:09.543Z,9.17
2023-05-20T03:54:42.250Z,9.14
2023-05-20T03:57:10.782Z,9.20
2023-05-20T03:59:40.243Z,9.26
2023-05-20T04:02:08.239Z,9.32
2023-05-20T04:04:36.535Z,9.23
2023-05-20T04:07:05.033Z,9.26
2023-05-20T04:09:33.282Z,9.34
2023-05-20T04:12:05.306Z,9.40
2023-05-20T04:14:35.502Z,9.50
2023-05-20T04:17:04.074Z,9.31
2023-05-20T04:19:32.021Z,9.48
2023-05-20T04:22:01.402Z,9.37
2023-05-20T04:24:29.479Z,9.31
2023-05-20T04:26:57.554Z,9.44
2023-05-20T04:29:26.955Z,9.43
2023-05-20T04:31:58.930Z,9.62
2023-05-20T04:34:27.190Z,9.77
2023-05-20T04:36:55.410Z,9.91
2023-05-20T04:39:23.405Z,10.06
2023-05-20T04:41:52.068Z,10.19
2023-05-20T04:44:20.148Z,10.28
2023-05-20T04:46:49.938Z,10.48
2023-05-20T04:49:19.325Z,10.65
2023-05-20T04:51:50.133Z,10.77
2023-05-20T04:54:18.402Z,10.79
2023-05-20T04:56:47.948Z,11.04
2023-05-20T04:59:16.029Z,11.36
2023-05-20T05:01:44.244Z,11.41
2023-05-20T05:04:13.653Z,11.67
2023-05-20T05:06:44.846Z,11.73
2023-05-20T05:09:15.334Z,11.75
2023-05-20T05:11:51.311Z,11.82
2023-05-20T05:14:22.307Z,11.76
2023-05-20T05:16:50.548Z,11.67
2023-05-20T05:20:21.523Z,11.64
2023-05-20T05:23:58.200Z,11.76
2023-05-20T05:27:22.942Z,11.88
2023-05-20T05:29:53.438Z,12.03
2023-05-20T05:32:21.653Z,12.24
2023-05-20T05:34:50.124Z,12.13
2023-05-20T05:37:18.244Z,12.21
2023-05-20T05:39:46.829Z,12.42
2023-05-20T05:42:17.089Z,12.55
2023-05-20T05:44:46.855Z,12.76
2023-05-20T05:47:18.509Z,12.98
2023-05-20T05:49:47.321Z,13.01
2023-05-20T05:52:15.810Z,13.03
2023-05-20T05:54:44.260Z,13.23
2023-05-20T05:57:12.336Z,13.40
2023-05-20T05:59:40.565Z,13.48
2023-05-20T06:02:11.086Z,13.61
2023-05-20T06:04:40.679Z,13.67
2023-05-20T06:07:09.710Z,13.65
2023-05-20T06:09:39.086Z,13.60
2023-05-20T06:12:08.511Z,13.70
2023-05-20T06:14:36.527Z,14.32
2023-05-20T06:17:05.884Z,14.77
2023-05-20T06:19:33.954Z,15.37
2023-05-20T06:22:03.511Z,15.46
2023-05-20T06:24:31.582Z,15.61
2023-05-20T06:27:00.921Z,16.10
2023-05-20T06:29:32.366Z,16.07
2023-05-20T06:32:01.811Z,16.04
2023-05-20T06:34:29.820Z,16.77
2023-05-20T06:36:58.144Z,17.16
2023-05-20T06:39:27.630Z,17.55
2023-05-20T06:41:55.908Z,17.35
2023-05-20T06:44:24.242Z,17.43
2023-05-20T06:46:54.504Z,17.60
2023-05-20T06:49:22.628Z,18.01
2023-05-20T06:51:50.726Z,17.58
2023-05-20T06:54:18.952Z,18.25
2023-05-20T06:56:48.280Z,17.84
2023-05-20T06:59:16.312Z,18.50
2023-05-20T07:01:45.836Z,18.97
2023-05-20T07:04:14.850Z,18.36
2023-05-20T07:06:43.024Z,18.94
2023-05-20T07:09:11.103Z,18.19
2023-05-20T07:11:40.652Z,18.12
2023-05-20T07:14:10.260Z,18.76
2023-05-20T07:16:38.492Z,18.77
2023-05-20T07:19:06.620Z,19.55
2023-05-20T07:21:34.688Z,18.89
2023-05-20T07:24:02.737Z,18.25
2023-05-20T07:26:33.600Z,18.75
2023-05-20T07:29:02.010Z,18.27
2023-05-20T07:31:32.065Z,18.45
2023-05-20T07:34:00.559Z,18.15
2023-05-20T07:36:29.092Z,18.68
2023-05-20T07:39:03.553Z,18.93
2023-05-20T07:41:34.254Z,18.41
2023-05-20T07:44:03.662Z,18.66
2023-05-20T07:46:33.273Z,18.75
2023-05-20T07:49:01.530Z,19.22
2023-05-20T07:51:29.591Z,19.78
2023-05-20T07:53:58.096Z,19.92
2023-05-20T07:56:28.444Z,20.05
2023-05-20T07:58:59.286Z,19.98
2023-05-20T08:01:32.274Z,20.39
2023-05-20T08:04:01.952Z,19.92
2023-05-20T08:06:30.216Z,19.16
2023-05-20T08:08:58.855Z,19.54
2023-05-20T08:11:26.760Z,20.34
2023-05-20T08:13:55.381Z,20.23
2023-05-20T08:16:23.518Z,20.04
2023-05-20T08:18:51.813Z,20.32
2023-05-20T08:21:21.730Z,21.06
2023-05-20T08:23:49.874Z,20.08
2023-05-20T08:26:17.954Z,20.88
2023-05-20T08:28:46.849Z,20.55
2023-05-20T08:31:17.964Z,20.43
2023-05-20T08:33:46.018Z,19.87
2023-05-20T08:36:14.016Z,20.55
2023-05-20T08:38:43.676Z,20.90
2023-05-20T08:41:12.041Z,20.94
2023-05-20T08:43:40.203Z,21.04
2023-05-20T08:46:09.824Z,19.84
2023-05-20T08:48:38.534Z,20.13
2023-05-20T08:51:11.295Z,21.06
2023-05-20T08:53:39.446Z,21.97
2023-05-20T08:56:13.020Z,21.37
2023-05-20T08:58:43.138Z,21.49
2023-05-20T09:01:11.358Z,21.45
2023-05-20T09:03:39.422Z,21.33
2023-05-20T09:06:08.930Z,21.22
2023-05-20T09:08:40.379Z,20.86
2023-05-20T09:11:13.327Z,20.76
2023-05-20T09:13:41.487Z,21.37
2023-05-20T09:16:11.269Z,21.43
2023-05-20T09:18:40.175Z,21.31
2023-05-20T09:21:08.841Z,21.60
2023-05-20T09:23:38.965Z,21.98
2023-05-20T09:26:07.144Z,22.44
2023-05-20T09:28:38.620Z,21.88
2023-05-20T09:31:07.776Z,22.56
2023-05-20T09:33:38.095Z,23.17
2023-05-20T09:36:08.859Z,21.85
2023-05-20T09:38:39.702Z,21.49
2023-05-20T09:41:09.386Z,21.78
2023-05-20T09:43:40.906Z,22.67
2023-05-20T09:46:09.869Z,22.32
2023-05-20T09:48:38.461Z,21.35
2023-05-20T09:51:10.037Z,21.33
2023-05-20T09:53:38.289Z,21.71
2023-05-20T09:56:07.000Z,20.94
2023-05-20T09:58:36.746Z,19.98
2023-05-20T10:01:07.702Z,20.85
2023-05-20T10:03:36.235Z,21.80
2023-05-20T10:06:20.490Z,20.99
2023-05-20T10:09:11.740Z,22.00
2023-05-20T10:12:03.611Z,21.91
2023-05-20T10:14:50.889Z,22.11
2023-05-20T10:17:26.628Z,22.99
2023-05-20T10:20:01.390Z,22.47
2023-05-20T10:22:32.698Z,20.60
2023-05-20T10:25:24.767Z,20.31
2023-05-20T10:31:46.102Z,21.95
2023-05-20T10:34:18.684Z,22.12
2023-05-20T10:36:49.335Z,22.04
2023-05-20T10:39:18.485Z,22.55
2023-05-20T10:41:46.458Z,22.78
2023-05-20T10:44:14.478Z,22.19
2023-05-20T10:49:24.009Z,21.40
2023-05-20T10:51:55.573Z,22.08
2023-05-20T10:54:24.066Z,22.67
2023-05-20T10:56:55.608Z,21.78
2023-05-20T10:59:24.257Z,22.46
2023-05-20T11:01:54.696Z,22.74
2023-05-20T11:04:24.756Z,22.15
2023-05-20T11:06:56.023Z,20.86
2023-05-20T11:09:24.035Z,21.74
2023-05-20T11:11:55.147Z,22.04
2023-05-20T11:14:23.332Z,22.11
2023-05-20T11:16:54.772Z,21.06
2023-05-20T11:19:24.746Z,22.73
2023-05-20T11:21:53.520Z,23.90
2023-05-20T11:24:27.109Z,24.08
2023-05-20T11:26:55.908Z,24.66
2023-05-20T11:29:24.159Z,23.31
2023-05-20T11:31:52.343Z,22.38
2023-05-20T11:34:25.030Z,22.52
2023-05-20T11:36:59.709Z,23.34
2023-05-20T11:39:32.718Z,23.18
2023-05-20T11:42:01.001Z,22.62
2023-05-20T11:44:29.063Z,22.35
2023-05-20T11:47:01.682Z,23.65
2023-05-20T11:49:30.958Z,23.60
2023-05-20T11:52:00.700Z,23.95
2023-05-20T11:54:28.884Z,24.10
2023-05-20T11:56:57.152Z,22.54
2023-05-20T11:59:25.843Z,22.98
2023-05-20T12:01:54.138Z,23.56
2023-05-20T12:04:22.439Z,24.43
2023-05-20T12:06:51.073Z,22.74
2023-05-20T12:09:22.837Z,21.69
2023-05-20T12:11:51.004Z,21.75
2023-05-20T12:14:18.984Z,21.36
2023-05-20T12:16:46.927Z,20.80
2023-05-20T12:19:17.412Z,20.75
2023-05-20T12:21:47.368Z,21.24
2023-05-20T12:24:15.414Z,21.47
2023-05-20T12:26:44.745Z,21.68
2023-05-20T12:29:12.804Z,23.09
2023-05-20T12:31:42.053Z,23.65
2023-05-20T12:34:10.237Z,24.74
2023-05-20T12:36:39.879Z,25.38
2023-05-20T12:39:08.405Z,23.52
2023-05-20T12:41:36.692Z,23.45
2023-05-20T12:44:06.841Z,24.42
2023-05-20T12:46:39.829Z,24.92
2023-05-20T12:49:08.197Z,23.18
2023-05-20T12:51:37.578Z,23.96
2023-05-20T12:54:05.656Z,24.13
2023-05-20T12:56:33.640Z,24.54
2023-05-20T12:59:02.132Z,22.89
2023-05-20T13:01:31.909Z,23.86
2023-05-20T13:04:00.004Z,24.27
2023-05-20T13:06:28.188Z,23.87
2023-05-20T13:08:56.164Z,23.62
2023-05-20T13:11:25.069Z,23.20
2023-05-20T13:13:53.174Z,21.86
2023-05-20T13:16:21.166Z,22.51
2023-05-20T13:18:51.763Z,22.27
2023-05-20T13:21:20.156Z,21.55
2023-05-20T13:23:50.087Z,21.70
2023-05-20T13:26:18.731Z,22.15
2023-05-20T13:28:47.025Z,22.26
2023-05-20T13:31:14.980Z,22.00
2023-05-20T13:33:43.166Z,21.26
2023-05-20T13:36:12.470Z,21.17
2023-05-20T13:38:40.538Z,20.80
2023-05-20T13:41:12.388Z,21.01
2023-05-20T13:43:42.179Z,20.64
2023-05-20T13:46:10.356Z,21.34
2023-05-20T13:48:38.681Z,21.26
2023-05-20T13:51:06.867Z,21.66
2023-05-20T13:53:38.464Z,21.69
2023-05-20T13:56:09.286Z,21.97
2023-05-20T13:58:38.557Z,21.38
2023-05-20T14:03:36.625Z,23.77
2023-05-20T14:06:10.231Z,22.32
2023-05-20T14:08:41.232Z,20.98
2023-05-20T14:11:13.963Z,20.89
2023-05-20T14:13:42.105Z,21.21
2023-05-20T14:16:11.882Z,21.24
2023-05-20T14:18:42.712Z,22.10
2023-05-20T14:21:11.749Z,22.30
2023-05-20T14:23:45.222Z,22.02
2023-05-20T14:26:14.638Z,21.07
2023-05-20T14:28:42.734Z,20.92
2023-05-20T14:31:12.340Z,20.65
2023-05-20T14:33:41.460Z,20.32
2023-05-20T14:36:09.607Z,20.95
2023-05-20T14:38:39.607Z,20.34
2023-05-20T14:41:18.441Z,20.66
2023-05-20T14:43:51.172Z,21.57
2023-05-20T14:46:21.704Z,20.99
2023-05-20T14:48:49.810Z,20.19
2023-05-20T14:51:17.873Z,20.15
2023-05-20T14:53:45.965Z,20.29
2023-05-20T14:56:21.692Z,20.09
2023-05-20T14:58:49.878Z,19.88
2023-05-20T15:01:19.408Z,19.55
2023-05-20T15:03:47.749Z,19.63
2023-05-20T15:06:16.246Z,19.42
2023-05-20T15:08:44.357Z,19.48
2023-05-20T15:11:12.514Z,19.58
2023-05-20T15:13:42.082Z,19.73
2023-05-20T15:16:27.355Z,19.65
2023-05-20T15:19:03.866Z,19.75
2023-05-20T15:21:39.416Z,19.95
2023-05-20T15:24:09.730Z,19.75
2023-05-20T15:26:50.096Z,19.81
2023-05-20T15:29:31.653Z,19.83
2023-05-20T15:32:32.546Z,19.73
2023-05-20T15:35:02.534Z,19.76
2023-05-20T15:37:30.980Z,19.93
2023-05-20T15:39:59.428Z,19.98
2023-05-20T15:42:27.673Z,20.03
2023-05-20T15:44:57.166Z,19.72
2023-05-20T15:47:27.438Z,20.42
2023-05-20T15:49:57.382Z,20.41
2023-05-20T15:52:25.432Z,20.84
2023-05-20T15:54:53.575Z,20.85
2023-05-20T15:57:24.395Z,19.99
2023-05-20T15:59:52.502Z,19.59
2023-05-20T16:02:22.059Z,19.79
2023-05-20T16:04:50.243Z,20.04
2023-05-20T16:07:19.447Z,19.94
2023-05-20T16:09:47.676Z,19.76
2023-05-20T16:12:17.929Z,19.57
2023-05-20T16:14:46.010Z,19.48
2023-05-20T16:17:14.222Z,19.04
2023-05-20T16:19:43.871Z,18.98
2023-05-20T16:22:11.945Z,18.90
2023-05-20T16:24:40.138Z,18.87
2023-05-20T16:27:09.190Z,18.81
2023-05-20T16:29:37.442Z,18.70
2023-05-20T16:32:05.752Z,18.86
2023-05-20T16:34:33.951Z,18.69
2023-05-20T16:37:03.182Z,18.64
2023-05-20T16:39:31.241Z,18.59
2023-05-20T16:41:59.266Z,18.52
2023-05-20T16:44:27.263Z,18.77
2023-05-20T16:46:57.022Z,18.66
2023-05-20T16:49:25.080Z,18.40
2023-05-20T16:51:53.211Z,18.42
2023-05-20T16:54:22.713Z,18.08
2023-05-20T16:56:52.842Z,17.97
2023-05-20T16:59:20.935Z,17.95
2023-05-20T17:01:49.969Z,18.08
2023-05-20T17:04:18.045Z,18.11
2023-05-20T17:06:46.147Z,18.02
2023-05-20T17:09:14.426Z,17.92
2023-05-20T17:11:43.862Z,17.91
2023-05-20T17:14:11.951Z,17.79
2023-05-20T17:16:40.179Z,17.88
2023-05-20T17:19:08.134Z,17.63
2023-05-20T17:21:36.431Z,17.64
2023-05-20T17:24:05.263Z,17.68
2023-05-20T17:26:33.406Z,17.63
2023-05-20T17:29:02.728Z,17.59
2023-05-20T17:31:30.678Z,17.48
2023-05-20T17:33:58.796Z,17.43
2023-05-20T17:36:27.130Z,17.22
2023-05-20T17:38:55.026Z,17.37
2023-05-20T17:41:26.337Z,17.39
2023-05-20T17:43:55.680Z,17.42
2023-05-20T17:46:25.129Z,17.38
2023-05-20T17:48:53.051Z,17.34
2023-05-20T17:51:21.152Z,17.34
2023-05-20T17:53:49.026Z,17.32
2023-05-20T17:56:17.024Z,17.32
2023-05-20T17:58:45.557Z,17.22
2023-05-20T18:01:15.061Z,17.19
2023-05-20T18:03:44.786Z,17.20
2023-05-20T18:06:12.946Z,17.09
2023-05-20T18:08:42.451Z,16.99
2023-05-20T18:11:10.590Z,17.04
2023-05-20T18:13:39.981Z,17.03
2023-05-20T18:16:09.319Z,17.04
2023-05-20T18:18:38.486Z,17.01
2023-05-20T18:21:10.095Z,16.86
2023-05-20T18:23:37.998Z,16.82
2023-05-20T18:26:07.148Z,16.89
2023-05-20T18:28:35.134Z,16.84
2023-05-20T18:31:02.924Z,16.77
2023-05-20T18:33:31.892Z,16.73
2023-05-20T18:35:59.971Z,16.69
2023-05-20T18:38:29.585Z,16.61
2023-05-20T18:40:57.509Z,16.56
2023-05-20T18:43:26.572Z,16.60
2023-05-20T18:45:54.592Z,16.51
2023-05-20T18:48:27.099Z,16.44
2023-05-20T18:50:55.581Z,16.43
2023-05-20T18:53:23.994Z,16.38
2023-05-20T18:55:56.039Z,16.41
2023-05-20T18:58:24.142Z,16.22
2023-05-20T19:00:52.314Z,16.25
2023-05-20T19:03:21.345Z,16.29
2023-05-20T19:05:49.957Z,16.12
2023-05-20T19:08:39.948Z,16.13
2023-05-20T19:11:32.264Z,16.08
2023-05-20T19:14:00.847Z,15.90
2023-05-20T19:16:28.955Z,16.03
2023-05-20T19:18:57.130Z,16.02
2023-05-20T19:21:25.110Z,15.90
2023-05-20T19:23:53.153Z,15.92
2023-05-20T19:26:22.611Z,15.91
2023-05-20T19:28:51.624Z,15.94
2023-05-20T19:31:21.996Z,15.95
2023-05-20T19:33:50.144Z,15.95
2023-05-20T19:36:19.646Z,15.96
2023-05-20T19:38:47.963Z,15.89
2023-05-20T19:41:16.332Z,15.87
2023-05-20T19:43:46.271Z,15.80
2023-05-20T19:46:14.584Z,15.71
2023-05-20T19:48:42.824Z,15.80
2023-05-20T19:51:11.538Z,15.75
2023-05-20T19:53:39.739Z,15.70
2023-05-20T19:56:08.396Z,15.69
2023-05-20T19:58:36.642Z,15.65
2023-05-20T20:01:06.865Z,15.53
2023-05-20T20:03:35.227Z,15.58
2023-05-20T20:06:04.134Z,15.51
2023-05-20T20:08:32.725Z,15.58
2023-05-20T20:11:00.992Z,15.57
2023-05-20T20:13:29.388Z,15.58
2023-05-20T20:15:57.529Z,15.59
2023-05-20T20:18:27.143Z,15.66
2023-05-20T20:20:59.811Z,15.60
2023-05-20T20:23:29.804Z,15.53
2023-05-20T20:26:13.789Z,15.43
2023-05-20T20:28:42.250Z,15.53
2023-05-20T20:31:26.603Z,15.54
2023-05-20T20:34:02.335Z,15.39
2023-05-20T20:36:39.774Z,15.34
2023-05-20T20:39:08.396Z,15.39
2023-05-20T20:41:38.691Z,15.40
2023-05-20T20:44:08.339Z,15.35
2023-05-20T20:46:38.153Z,15.34
2023-05-20T20:49:07.549Z,15.38
2023-05-20T20:51:35.635Z,15.33
2023-05-20T20:54:03.916Z,15.32
2023-05-20T20:56:37.238Z,15.23
2023-05-20T20:59:08.302Z,15.24
2023-05-20T21:01:37.841Z,15.19
2023-05-20T21:04:09.661Z,15.13
2023-05-20T21:06:40.845Z,15.11
2023-05-20T21:09:09.608Z,15.17
2023-05-20T21:11:38.418Z,15.06
2023-05-20T21:14:09.090Z,15.09
2023-05-20T21:16:37.267Z,15.14
2023-05-20T21:19:09.121Z,14.97
2023-05-20T21:21:39.268Z,14.93
2023-05-20T21:24:10.343Z,14.95
2023-05-20T21:26:39.580Z,14.94
2023-05-20T21:29:10.032Z,14.92
2023-05-20T21:31:38.162Z,14.86
2023-05-20T21:34:06.763Z,14.72
2023-05-20T21:36:34.944Z,14.51
2023-05-20T21:39:05.040Z,14.54
2023-05-20T21:41:33.257Z,14.48
2023-05-20T21:44:01.293Z,14.56
2023-05-20T21:46:29.394Z,14.60
2023-05-20T21:48:59.628Z,14.61
2023-05-20T21:51:29.000Z,14.46
2023-05-20T21:53:57.164Z,14.62
2023-05-20T21:56:26.550Z,14.55
2023-05-20T21:58:55.890Z,14.66
2023-05-20T22:01:23.888Z,14.54
2023-05-20T22:03:53.374Z,14.58
2023-05-20T22:06:23.989Z,14.58
2023-05-20T22:08:52.137Z,14.53
2023-05-20T22:11:21.591Z,14.54
2023-05-20T22:13:51.047Z,14.56
2023-05-20T22:16:19.145Z,14.55
2023-05-20T22:18:49.722Z,14.55
2023-05-20T22:21:17.885Z,14.52
2023-05-20T22:23:46.067Z,14.54
2023-05-20T22:26:14.164Z,14.55
2023-05-20T22:28:42.272Z,14.55
2023-05-20T22:31:12.307Z,14.52
2023-05-20T22:33:42.462Z,14.51
2023-05-20T22:36:10.618Z,14.56
2023-05-20T22:38:38.725Z,14.52
2023-05-20T22:41:10.292Z,14.46
2023-05-20T22:43:40.147Z,14.52
2023-05-20T22:46:08.883Z,14.48
2023-05-20T22:48:38.707Z,14.37
2023-05-20T22:51:08.934Z,14.46
2023-05-20T22:53:37.451Z,14.40
2023-05-20T22:56:06.624Z,14.41
2023-05-20T22:58:39.481Z,14.43
2023-05-20T23:01:08.365Z,14.32
2023-05-20T23:03:36.434Z,14.39
2023-05-20T23:06:06.554Z,14.32
2023-05-20T23:08:35.054Z,14.30
2023-05-20T23:11:03.034Z,14.36
2023-05-20T23:13:31.445Z,14.28
2023-05-20T23:15:59.414Z,14.25
2023-05-20T23:18:27.684Z,14.24
2023-05-20T23:20:55.946Z,14.21
2023-05-20T23:23:31.053Z,14.23
2023-05-20T23:26:01.632Z,14.26
2023-05-20T23:28:29.827Z,14.19
2023-05-20T23:30:57.859Z,14.25
2023-05-20T23:33:26.244Z,14.20
2023-05-20T23:35:54.427Z,14.25
2023-05-20T23:38:22.845Z,14.17
2023-05-20T23:40:55.178Z,14.08
2023-05-20T23:43:23.180Z,14.06
2023-05-20T23:45:51.230Z,14.18
2023-05-20T23:48:19.884Z,14.14
2023-05-20T23:50:48.278Z,14.15
2023-05-20T23:53:17.117Z,14.10
2023-05-20T23:55:45.463Z,14.13
2023-05-20T23:58:14.748Z,14.08
